Time;durP1;ratioP1;P1;durP2;ratioP2;P2;SDS_P1;SDS_P2;PMS_P1;PMS_P2;Temp;Humidity;BMP_temperature;BMP_pressure;BME280_temperature;BME280_humidity;BME280_pressure;Samples;Min_cycle;Max_cycle;Signal;HPM_P1;HPM_P2
2022/09/18 00:00:01;;;;;;;6.60;1.13;;;11.80;99.90;;;;;;5052844;28;20021;-76
2022/09/18 00:02:27;;;;;;;4.90;1.05;;;11.80;99.90;;;;;;5053191;28;20409;-76
2022/09/18 00:04:53;;;;;;;6.50;1.65;;;11.80;99.90;;;;;;5053459;28;20071;-75
2022/09/18 00:07:18;;;;;;;3.88;1.27;;;11.80;99.90;;;;;;5052561;28;20047;-76
2022/09/18 00:09:44;;;;;;;9.65;1.23;;;11.80;99.90;;;;;;5053342;28;20025;-75
2022/09/18 00:12:10;;;;;;;8.23;1.67;;;11.70;99.90;;;;;;5053114;28;20354;-75
2022/09/18 00:14:35;;;;;;;5.22;1.17;;;11.60;99.90;;;;;;5053447;28;20166;-76
2022/09/18 00:17:01;;;;;;;7.15;1.17;;;11.60;99.90;;;;;;5053234;28;20079;-74
2022/09/18 00:19:27;;;;;;;6.40;1.58;;;11.60;99.90;;;;;;5051952;28;20400;-74
2022/09/18 00:21:53;;;;;;;12.00;2.88;;;11.60;99.90;;;;;;5052871;28;20055;-74
2022/09/18 00:24:19;;;;;;;7.35;1.20;;;11.60;99.90;;;;;;5052799;28;20056;-74
2022/09/18 00:26:46;;;;;;;5.20;1.35;;;11.60;99.90;;;;;;5052321;28;20044;-75
2022/09/18 00:29:13;;;;;;;7.72;1.10;;;11.60;99.90;;;;;;5053017;28;20025;-76
2022/09/18 00:31:39;;;;;;;6.10;1.75;;;11.60;99.90;;;;;;5038919;28;20397;-75
2022/09/18 00:34:09;;;;;;;10.27;1.50;;;11.60;99.90;;;;;;5051977;28;20021;-75
2022/09/18 00:36:36;;;;;;;7.18;1.70;;;11.50;99.90;;;;;;5052800;28;20036;-75
2022/09/18 00:39:02;;;;;;;6.55;1.20;;;11.50;99.90;;;;;;5052975;28;20143;-76
2022/09/18 00:41:30;;;;;;;3.97;1.08;;;11.50;99.90;;;;;;5051899;28;20051;-75
2022/09/18 00:44:32;;;;;;;8.38;1.23;;;11.40;99.90;;;;;;5052191;28;20358;-75
2022/09/18 00:47:10;;;;;;;7.30;1.90;;;11.40;99.90;;;;;;5051330;28;20025;-75
2022/09/18 00:49:38;;;;;;;7.50;1.27;;;11.40;99.90;;;;;;5041412;28;20098;-76
2022/09/18 00:52:04;;;;;;;6.80;1.23;;;11.40;99.90;;;;;;5052641;28;20111;-76
2022/09/18 00:54:38;;;;;;;5.32;0.90;;;11.30;99.90;;;;;;5037406;28;20112;-75
2022/09/18 00:57:09;;;;;;;3.88;1.25;;;11.30;99.90;;;;;;5052947;28;20044;-75
2022/09/18 00:59:36;;;;;;;6.30;0.98;;;11.30;99.90;;;;;;5052546;28;20017;-76
2022/09/18 01:02:03;;;;;;;12.38;1.67;;;11.20;99.90;;;;;;5050802;28;20112;-75
2022/09/18 01:04:28;;;;;;;9.95;1.50;;;11.20;99.90;;;;;;5052508;28;20052;-75
2022/09/18 01:07:06;;;;;;;9.77;1.50;;;11.30;99.90;;;;;;5052826;28;20421;-75
2022/09/18 01:09:49;;;;;;;7.65;1.20;;;11.40;99.90;;;;;;5051717;28;20029;-75
2022/09/18 01:12:35;;;;;;;9.50;1.92;;;11.40;99.90;;;;;;5052591;28;20094;-76
2022/09/18 01:15:38;;;;;;;7.88;1.60;;;11.40;99.90;;;;;;5052025;28;20385;-75
2022/09/18 01:18:25;;;;;;;10.18;1.27;;;11.40;99.90;;;;;;5052313;28;20025;-75
2022/09/18 01:21:11;;;;;;;10.57;1.40;;;11.30;99.90;;;;;;5051795;28;20029;-74
2022/09/18 01:24:18;;;;;;;6.72;1.25;;;11.50;99.90;;;;;;5037642;28;20024;-75
2022/09/18 01:26:55;;;;;;;9.60;1.42;;;11.60;99.90;;;;;;5052318;28;20043;-75
2022/09/18 01:29:41;;;;;;;4.78;1.17;;;11.80;99.90;;;;;;5051683;28;20441;-75
2022/09/18 01:32:06;;;;;;;5.30;0.85;;;11.80;99.90;;;;;;5051827;28;20017;-76
2022/09/18 01:34:39;;;;;;;8.10;1.02;;;11.90;99.90;;;;;;5052125;28;20029;-75
2022/09/18 01:37:36;;;;;;;4.30;0.82;;;11.90;99.90;;;;;;5051295;28;20040;-74
2022/09/18 01:40:27;;;;;;;1.85;0.52;;;11.80;99.90;;;;;;5052060;28;20048;-75
2022/09/18 01:42:58;;;;;;;9.50;1.20;;;11.80;99.90;;;;;;5049322;28;20086;-75
2022/09/18 01:45:26;;;;;;;;;;;11.70;99.90;;;;;;5051291;28;20033;-75
2022/09/18 01:47:58;;;;;;;8.23;1.33;;;11.70;99.90;;;;;;5042886;28;19916;-76
2022/09/18 01:50:28;;;;;;;3.72;0.63;;;11.70;99.90;;;;;;5047099;28;20558;-75
2022/09/18 01:52:58;;;;;;;9.38;1.35;;;11.70;99.90;;;;;;5046525;28;20022;-76
2022/09/18 01:55:26;;;;;;;5.63;1.10;;;11.70;99.90;;;;;;5042824;28;20036;-76
2022/09/18 01:57:57;;;;;;;6.25;0.90;;;11.60;99.90;;;;;;5050830;28;20404;-76
2022/09/18 02:00:29;;;;;;;;;;;11.60;99.90;;;;;;5051870;28;20025;-76
2022/09/18 02:03:04;;;;;;;3.53;0.80;;;11.60;99.90;;;;;;5051434;28;19913;-76
2022/09/18 02:05:36;;;;;;;5.32;1.67;;;11.60;99.90;;;;;;5050769;28;20051;-76
2022/09/18 02:08:14;;;;;;;4.50;1.38;;;11.70;99.90;;;;;;5051700;28;20112;-76
2022/09/18 02:10:56;;;;;;;8.25;1.33;;;11.70;99.90;;;;;;5051466;28;20362;-77
2022/09/18 02:13:29;;;;;;;8.25;1.20;;;11.70;99.90;;;;;;5050533;28;20025;-76
2022/09/18 02:15:59;;;;;;;4.50;1.02;;;11.60;99.90;;;;;;5051699;28;20037;-77
2022/09/18 02:18:32;;;;;;;8.30;1.60;;;11.70;99.90;;;;;;5051209;28;20029;-75
2022/09/18 02:20:57;;;;;;;9.23;1.95;;;11.80;99.90;;;;;;5050826;28;20116;-77
2022/09/18 02:23:24;;;;;;;5.53;1.02;;;11.70;99.90;;;;;;5051213;28;20105;-76
2022/09/18 02:26:03;;;;;;;8.73;1.25;;;11.70;99.90;;;;;;5050800;28;20060;-76
2022/09/18 02:28:30;;;;;;;6.65;1.40;;;11.70;99.90;;;;;;5051412;28;20025;-76
2022/09/18 02:30:58;;;;;;;5.50;0.95;;;11.80;99.90;;;;;;5051604;28;20017;-76
2022/09/18 02:33:31;;;;;;;7.90;0.85;;;11.70;99.90;;;;;;5051160;28;20028;-76
2022/09/18 02:36:22;;;;;;;2.88;0.77;;;11.70;99.90;;;;;;5055272;28;20036;-76
2022/09/18 02:38:56;;;;;;;3.58;0.73;;;11.70;99.90;;;;;;5055113;28;20075;-76
2022/09/18 02:41:51;;;;;;;3.97;1.08;;;11.60;99.90;;;;;;5054259;28;20079;-77
2022/09/18 02:44:31;;;;;;;9.07;1.48;;;11.60;99.90;;;;;;5042300;28;20040;-77
2022/09/18 02:47:28;;;;;;;6.65;0.98;;;11.50;99.90;;;;;;5054386;28;20072;-76
2022/09/18 02:50:08;;;;;;;5.30;1.10;;;11.40;99.90;;;;;;5055386;28;20463;-76
2022/09/18 02:52:50;;;;;;;18.55;2.13;;;11.40;99.90;;;;;;5048035;28;20028;-76
2022/09/18 02:55:39;;;;;;;6.30;0.88;;;11.60;99.90;;;;;;5053591;28;20268;-75
2022/09/18 02:58:14;;;;;;;4.35;1.05;;;11.70;99.90;;;;;;5043362;28;20477;-75
2022/09/18 03:00:42;;;;;;;6.85;1.88;;;11.80;99.90;;;;;;5045739;28;20029;-75
2022/09/18 03:03:12;;;;;;;9.95;1.10;;;11.90;99.90;;;;;;5049317;28;20581;-76
2022/09/18 03:05:38;;;;;;;15.73;2.13;;;12.00;99.90;;;;;;5055017;28;20420;-76
2022/09/18 03:08:03;;;;;;;6.50;1.60;;;11.90;99.90;;;;;;5053915;28;20025;-75
2022/09/18 03:10:30;;;;;;;10.57;0.90;;;11.90;99.90;;;;;;5040546;28;20017;-76
2022/09/18 03:12:55;;;;;;;8.07;1.02;;;11.90;99.90;;;;;;5054938;28;20032;-76
2022/09/18 03:15:21;;;;;;;4.72;1.00;;;11.90;99.90;;;;;;5053908;28;20029;-76
2022/09/18 03:17:46;;;;;;;5.43;0.82;;;11.80;99.90;;;;;;5055785;28;20036;-76
2022/09/18 03:20:12;;;;;;;3.53;1.05;;;11.80;99.90;;;;;;5057508;28;20028;-75
2022/09/18 03:22:37;;;;;;;5.28;0.77;;;11.70;99.90;;;;;;5058521;28;20064;-76
2022/09/18 03:25:03;;;;;;;1.98;0.80;;;11.70;99.90;;;;;;5059142;28;20572;-76
2022/09/18 03:27:29;;;;;;;8.52;1.33;;;11.70;99.90;;;;;;5048747;28;20052;-76
2022/09/18 03:29:54;;;;;;;7.00;1.60;;;11.70;99.90;;;;;;5062177;28;20032;-76
2022/09/18 03:32:20;;;;;;;3.80;0.80;;;11.80;99.90;;;;;;5056593;28;20028;-76
2022/09/18 03:34:45;;;;;;;7.45;1.60;;;11.80;99.90;;;;;;5054499;28;20021;-76
2022/09/18 03:37:11;;;;;;;8.23;1.00;;;11.80;99.90;;;;;;5053557;28;20034;-76
2022/09/18 03:39:37;;;;;;;4.97;1.20;;;11.80;99.90;;;;;;5054293;28;20019;-76
2022/09/18 03:42:02;;;;;;;2.20;0.90;;;11.90;99.90;;;;;;5054025;28;20473;-75
2022/09/18 03:44:28;;;;;;;5.07;1.45;;;12.00;99.90;;;;;;5052470;28;20025;-73
2022/09/18 03:46:53;;;;;;;3.25;0.82;;;12.10;99.90;;;;;;5053923;28;20365;-74
2022/09/18 03:49:20;;;;;;;3.55;0.88;;;12.10;99.90;;;;;;5053458;28;20449;-75
2022/09/18 03:51:46;;;;;;;4.07;1.25;;;12.00;99.90;;;;;;5053151;28;20108;-75
2022/09/18 03:54:13;;;;;;;5.03;0.63;;;12.00;99.90;;;;;;5053318;28;20107;-75
2022/09/18 03:56:39;;;;;;;4.50;0.82;;;12.00;99.90;;;;;;5054038;28;20041;-75
2022/09/18 03:59:04;;;;;;;6.32;0.90;;;12.00;99.90;;;;;;5053338;28;20076;-75
2022/09/18 04:01:30;;;;;;;4.25;0.60;;;11.90;99.90;;;;;;5039336;28;20086;-74
2022/09/18 04:03:55;;;;;;;2.13;0.55;;;12.00;99.90;;;;;;5054063;28;20044;-75
2022/09/18 04:06:21;;;;;;;7.85;1.05;;;12.00;99.90;;;;;;5052494;28;20021;-75
2022/09/18 04:08:47;;;;;;;4.18;0.80;;;12.00;99.90;;;;;;5053803;28;20075;-76
2022/09/18 04:11:12;;;;;;;6.45;1.20;;;12.00;99.90;;;;;;5052788;28;20082;-75
2022/09/18 04:13:38;;;;;;;10.70;1.20;;;12.10;99.90;;;;;;5053134;28;20024;-75
2022/09/18 04:16:03;;;;;;;6.38;1.10;;;12.00;99.90;;;;;;5053229;28;20477;-75
2022/09/18 04:18:29;;;;;;;7.03;1.42;;;12.00;99.90;;;;;;5052047;28;20074;-75
2022/09/18 04:20:55;;;;;;;4.20;1.00;;;11.90;99.90;;;;;;5052991;28;20033;-75
2022/09/18 04:23:21;;;;;;;5.63;0.88;;;11.90;99.90;;;;;;5052857;28;20021;-75
2022/09/18 04:25:46;;;;;;;3.55;0.98;;;11.90;99.90;;;;;;5052035;28;20053;-75
2022/09/18 04:28:12;;;;;;;6.85;0.80;;;11.90;99.90;;;;;;5052760;28;20033;-75
2022/09/18 04:30:37;;;;;;;5.82;1.00;;;11.90;99.90;;;;;;5053243;28;20083;-75
2022/09/18 04:33:06;;;;;;;6.07;1.55;;;11.90;99.90;;;;;;5052473;28;20071;-75
2022/09/18 04:35:31;;;;;;;6.07;0.77;;;11.90;99.90;;;;;;5052662;28;20047;-75
2022/09/18 04:37:57;;;;;;;9.32;0.82;;;11.90;99.90;;;;;;5053073;28;20017;-75
2022/09/18 04:40:23;;;;;;;5.50;0.90;;;11.90;99.90;;;;;;5051755;28;20017;-75
2022/09/18 04:42:48;;;;;;;5.35;1.02;;;11.90;99.90;;;;;;5052647;28;20440;-75
2022/09/18 04:45:14;;;;;;;6.45;1.00;;;11.90;99.90;;;;;;5052273;28;20028;-75
2022/09/18 04:47:40;;;;;;;4.68;1.00;;;11.90;99.90;;;;;;5052146;28;20025;-75
2022/09/18 04:50:07;;;;;;;7.55;1.23;;;11.90;99.90;;;;;;5052659;28;20031;-75
2022/09/18 04:52:34;;;;;;;4.80;1.23;;;11.90;99.90;;;;;;5052495;28;20075;-76
2022/09/18 04:54:59;;;;;;;9.50;1.23;;;11.90;99.90;;;;;;5051873;28;20012;-75
2022/09/18 04:57:25;;;;;;;3.38;0.90;;;11.90;99.90;;;;;;5051379;28;20457;-75
2022/09/18 04:59:50;;;;;;;11.88;2.28;;;12.00;99.90;;;;;;5047997;28;20402;-75
2022/09/18 05:02:17;;;;;;;7.30;1.10;;;12.00;99.90;;;;;;5041703;28;20025;-75
2022/09/18 05:04:43;;;;;;;4.95;0.68;;;12.00;99.90;;;;;;5052147;28;20028;-75
2022/09/18 05:07:08;;;;;;;7.50;1.15;;;12.00;99.90;;;;;;5051935;28;20128;-76
2022/09/18 05:09:35;;;;;;;2.10;0.80;;;11.90;99.90;;;;;;5051399;28;20029;-74
2022/09/18 05:12:01;;;;;;;4.25;0.70;;;12.00;99.90;;;;;;5052175;28;20021;-75
2022/09/18 05:14:26;;;;;;;3.15;0.73;;;12.00;99.90;;;;;;5051797;28;20077;-74
2022/09/18 05:16:52;;;;;;;2.72;0.98;;;12.00;99.90;;;;;;5051205;28;20120;-75
2022/09/18 05:19:17;;;;;;;3.78;0.88;;;11.90;99.90;;;;;;5051768;28;20024;-74
2022/09/18 05:21:43;;;;;;;3.75;0.63;;;11.80;99.90;;;;;;5051443;28;20029;-75
2022/09/18 05:24:09;;;;;;;3.25;0.68;;;11.90;99.90;;;;;;5051619;28;20037;-75
2022/09/18 05:26:34;;;;;;;2.33;0.68;;;11.90;99.90;;;;;;5051897;28;20028;-76
2022/09/18 05:29:00;;;;;;;5.40;0.75;;;11.80;99.90;;;;;;5051628;28;20096;-75
2022/09/18 05:31:26;;;;;;;3.92;0.70;;;11.70;99.90;;;;;;5051581;28;20029;-75
2022/09/18 05:33:52;;;;;;;4.80;0.80;;;11.50;99.90;;;;;;5051858;28;20120;-75
2022/09/18 05:36:17;;;;;;;6.53;0.60;;;11.40;99.90;;;;;;5051041;28;20120;-75
2022/09/18 05:38:44;;;;;;;4.10;0.82;;;11.40;99.90;;;;;;5051646;28;20107;-74
2022/09/18 05:41:09;;;;;;;2.35;0.63;;;11.30;99.90;;;;;;5051678;28;20068;-75
2022/09/18 05:43:35;;;;;;;4.80;0.77;;;11.20;99.90;;;;;;5051142;28;20418;-75
2022/09/18 05:46:01;;;;;;;1.98;0.60;;;11.20;99.90;;;;;;5051853;28;20484;-75
2022/09/18 05:48:26;;;;;;;3.28;0.50;;;11.20;99.90;;;;;;5051578;28;20461;-75
2022/09/18 05:50:52;;;;;;;5.63;0.60;;;11.20;99.90;;;;;;5051059;28;20021;-74
2022/09/18 05:53:20;;;;;;;3.88;0.70;;;11.30;99.90;;;;;;5051517;28;20268;-74
2022/09/18 05:55:46;;;;;;;3.13;1.20;;;11.40;99.90;;;;;;5051352;28;20111;-74
2022/09/18 05:58:16;;;;;;;6.35;2.38;;;11.40;99.90;;;;;;5050770;28;20117;-74
2022/09/18 06:00:43;;;;;;;5.80;0.77;;;11.60;99.90;;;;;;5039693;28;20025;-74
2022/09/18 06:03:11;;;;;;;2.78;0.82;;;11.60;99.90;;;;;;5031369;28;20041;-74
2022/09/18 06:05:37;;;;;;;5.03;1.00;;;11.60;99.90;;;;;;5031083;28;20147;-73
2022/09/18 06:08:05;;;;;;;5.10;0.82;;;11.70;99.90;;;;;;5033602;28;20029;-73
2022/09/18 06:10:33;;;;;;;2.35;0.60;;;11.70;99.90;;;;;;5037783;28;20100;-74
2022/09/18 06:13:04;;;;;;;5.55;1.33;;;11.60;99.90;;;;;;5037982;28;20446;-74
2022/09/18 06:15:30;;;;;;;2.35;0.65;;;11.60;99.90;;;;;;5040122;28;20047;-74
2022/09/18 06:17:56;;;;;;;5.38;0.70;;;11.70;99.90;;;;;;5046706;28;20078;-73
2022/09/18 06:20:22;;;;;;;3.20;0.73;;;11.70;99.90;;;;;;5047514;28;20029;-73
2022/09/18 06:22:47;;;;;;;3.70;0.70;;;11.80;99.90;;;;;;5047973;28;20053;-73
2022/09/18 06:25:15;;;;;;;8.02;1.27;;;11.80;99.90;;;;;;5044004;28;20087;-73
2022/09/18 06:27:41;;;;;;;5.72;0.88;;;11.80;99.90;;;;;;5049029;28;20021;-73
2022/09/18 06:30:07;;;;;;;4.95;0.95;;;11.80;99.90;;;;;;5048507;28;20108;-74
2022/09/18 06:32:32;;;;;;;3.00;0.77;;;11.90;99.90;;;;;;5049513;28;20021;-75
2022/09/18 06:34:58;;;;;;;6.95;1.00;;;12.00;99.90;;;;;;5047028;28;20032;-74
2022/09/18 06:37:23;;;;;;;3.60;0.80;;;12.00;99.90;;;;;;5044811;28;20499;-74
2022/09/18 06:39:49;;;;;;;5.65;0.90;;;11.90;99.90;;;;;;5045689;28;20021;-74
2022/09/18 06:42:15;;;;;;;2.83;0.73;;;12.00;99.90;;;;;;5049538;28;20126;-73
2022/09/18 06:44:41;;;;;;;7.35;0.80;;;12.00;99.90;;;;;;5052411;28;20060;-74
2022/09/18 06:47:07;;;;;;;5.90;0.80;;;12.00;99.90;;;;;;5046576;28;20028;-74
2022/09/18 06:49:33;;;;;;;3.58;0.40;;;12.00;99.90;;;;;;5049504;28;20051;-74
2022/09/18 06:51:59;;;;;;;5.20;0.80;;;12.00;99.90;;;;;;5046190;28;20059;-74
2022/09/18 06:54:24;;;;;;;8.77;0.80;;;12.00;99.90;;;;;;5043177;28;20025;-74
2022/09/18 06:56:50;;;;;;;6.65;0.80;;;12.10;99.90;;;;;;5049372;28;20033;-73
2022/09/18 06:59:16;;;;;;;5.43;0.80;;;12.20;99.90;;;;;;5050942;28;20516;-74
2022/09/18 07:01:41;;;;;;;5.22;0.95;;;12.20;99.90;;;;;;5051424;28;20039;-74
2022/09/18 07:04:07;;;;;;;5.25;1.00;;;12.20;99.90;;;;;;5052562;28;20017;-74
2022/09/18 07:06:32;;;;;;;6.22;1.48;;;12.30;99.90;;;;;;5052526;28;20021;-74
2022/09/18 07:08:58;;;;;;;3.75;0.90;;;12.40;99.90;;;;;;5052349;28;20487;-74
2022/09/18 07:11:23;;;;;;;5.97;1.00;;;12.50;99.90;;;;;;5052135;28;20473;-74
2022/09/18 07:13:50;;;;;;;10.63;1.13;;;12.60;99.90;;;;;;5053263;28;20452;-74
2022/09/18 07:16:16;;;;;;;6.57;1.13;;;12.70;99.90;;;;;;5052109;28;20150;-75
2022/09/18 07:18:42;;;;;;;4.43;0.88;;;12.70;99.90;;;;;;5051957;28;20489;-76
2022/09/18 07:21:07;;;;;;;4.60;0.93;;;12.80;99.90;;;;;;5052982;28;20061;-74
2022/09/18 07:23:33;;;;;;;5.07;0.90;;;12.90;99.90;;;;;;5052621;28;20052;-75
2022/09/18 07:26:00;;;;;;;2.95;1.17;;;13.00;99.90;;;;;;5053481;28;20724;-74
2022/09/18 07:28:26;;;;;;;4.70;1.38;;;13.10;99.90;;;;;;5052901;28;20162;-75
2022/09/18 07:30:53;;;;;;;4.80;1.00;;;13.10;99.90;;;;;;5053179;28;20041;-74
2022/09/18 07:33:18;;;;;;;5.60;1.25;;;13.20;99.90;;;;;;5051723;28;20031;-74
2022/09/18 07:35:44;;;;;;;12.80;1.30;;;13.20;99.90;;;;;;5051086;28;20119;-74
2022/09/18 07:38:10;;;;;;;8.77;1.50;;;13.30;99.90;;;;;;5051871;28;20078;-74
2022/09/18 07:40:36;;;;;;;7.20;1.77;;;13.40;99.90;;;;;;5051767;28;20096;-74
2022/09/18 07:43:05;;;;;;;4.63;1.45;;;13.50;99.90;;;;;;5051509;28;20037;-75
2022/09/18 07:45:31;;;;;;;4.05;1.00;;;13.60;99.90;;;;;;5051319;28;20079;-75
2022/09/18 07:48:00;;;;;;;6.03;1.08;;;13.70;99.90;;;;;;5051947;28;20021;-74
2022/09/18 07:50:26;;;;;;;5.07;1.08;;;13.90;99.90;;;;;;5050897;28;20033;-74
2022/09/18 07:52:55;;;;;;;6.57;1.02;;;14.00;99.90;;;;;;5051852;28;20084;-74
2022/09/18 07:55:22;;;;;;;8.18;1.13;;;14.00;99.90;;;;;;5051392;28;20029;-74
2022/09/18 07:57:53;;;;;;;15.07;3.05;;;14.00;99.90;;;;;;5050981;28;20020;-73
2022/09/18 08:00:19;;;;;;;7.93;1.00;;;14.10;99.90;;;;;;5050252;28;20106;-74
2022/09/18 08:02:44;;;;;;;8.82;1.45;;;14.10;99.90;;;;;;5051799;28;20108;-74
2022/09/18 08:05:10;;;;;;;5.70;1.55;;;14.10;99.90;;;;;;5050449;28;20436;-75
2022/09/18 08:07:36;;;;;;;8.30;1.80;;;14.20;99.90;;;;;;5051401;28;20477;-74
2022/09/18 08:10:03;;;;;;;8.70;1.13;;;14.20;99.90;;;;;;5050719;28;20103;-74
2022/09/18 08:12:30;;;;;;;6.47;1.23;;;14.20;99.90;;;;;;5050327;28;20032;-76
2022/09/18 08:14:57;;;;;;;12.73;1.40;;;14.20;99.90;;;;;;5050412;28;20055;-75
2022/09/18 08:17:22;;;;;;;5.32;1.17;;;14.10;99.90;;;;;;5050086;28;20032;-74
2022/09/18 08:19:48;;;;;;;6.43;1.20;;;14.00;99.90;;;;;;5051175;28;20040;-74
2022/09/18 08:22:16;;;;;;;7.05;0.80;;;14.40;99.90;;;;;;5049632;28;20036;-76
2022/09/18 08:24:42;;;;;;;6.45;0.90;;;13.90;99.90;;;;;;5050340;28;20029;-75
2022/09/18 08:27:08;;;;;;;8.65;1.13;;;13.80;99.90;;;;;;5047507;28;20041;-74
2022/09/18 08:29:33;;;;;;;3.20;0.90;;;13.80;99.90;;;;;;5045756;28;20402;-75
2022/09/18 08:31:59;;;;;;;3.28;0.85;;;13.70;99.90;;;;;;5044903;28;20458;-75
2022/09/18 08:34:25;;;;;;;6.15;1.20;;;13.70;99.90;;;;;;5048551;28;20040;-75
2022/09/18 08:36:51;;;;;;;3.42;0.80;;;13.70;99.90;;;;;;5045108;28;20041;-76
2022/09/18 08:39:16;;;;;;;5.32;0.73;;;13.60;99.90;;;;;;5040203;28;20025;-75
2022/09/18 08:42:11;;;;;;;7.40;1.70;;;13.70;99.90;;;;;;5044629;28;20116;-75
2022/09/18 08:44:45;;;;;;;6.03;1.00;;;13.70;99.90;;;;;;5049652;28;20017;-75
2022/09/18 08:47:45;;;;;;;5.53;0.88;;;13.70;99.90;;;;;;5046853;28;20033;-76
2022/09/18 08:50:20;;;;;;;6.30;0.90;;;13.70;99.90;;;;;;5048762;28;20487;-76
2022/09/18 08:52:52;;;;;;;3.78;0.70;;;13.70;99.90;;;;;;5045680;28;20535;-75
2022/09/18 08:55:29;;;;;;;3.60;0.93;;;13.70;99.90;;;;;;5045239;28;20032;-74
2022/09/18 08:58:03;;;;;;;3.85;0.80;;;13.70;99.90;;;;;;5049014;28;20029;-76
2022/09/18 09:00:41;;;;;;;5.70;0.98;;;13.70;99.90;;;;;;5046803;28;20028;-76
2022/09/18 09:03:33;;;;;;;6.88;1.08;;;13.70;99.90;;;;;;5047616;28;21761;-77
2022/09/18 09:06:11;;;;;;;6.40;1.27;;;13.80;99.90;;;;;;5048516;28;20029;-75
2022/09/18 09:09:24;;;;;;;3.97;0.95;;;13.90;99.90;;;;;;5045074;28;20025;-79
2022/09/18 09:12:06;;;;;;;6.10;1.10;;;14.00;99.90;;;;;;5043267;28;20087;-76
2022/09/18 09:14:42;;;;;;;7.38;1.60;;;14.10;99.90;;;;;;5042593;28;20029;-79
2022/09/18 09:17:32;;;;;;;6.10;1.05;;;14.20;99.90;;;;;;5048725;28;20041;-78
2022/09/18 09:20:18;;;;;;;;;;;14.30;99.90;;;;;;5049037;28;20033;-78
2022/09/18 09:23:00;;;;;;;10.80;1.40;;;14.40;99.90;;;;;;5046944;28;19905;-79
2022/09/18 09:25:48;;;;;;;7.70;1.05;;;14.50;99.90;;;;;;5044364;28;20414;-80
2022/09/18 09:28:24;;;;;;;10.00;1.65;;;14.70;99.90;;;;;;5048803;28;20029;-77
2022/09/18 09:30:55;;;;;;;10.05;1.30;;;14.70;99.90;;;;;;5050760;28;20473;-78
2022/09/18 09:33:38;;;;;;;14.00;1.70;;;14.80;99.90;;;;;;5043877;28;20447;-77
2022/09/18 09:36:10;;;;;;;6.95;1.15;;;14.70;99.90;;;;;;5046593;28;20493;-76
2022/09/18 09:38:39;;;;;;;5.78;1.30;;;14.70;99.90;;;;;;5045361;28;20452;-78
2022/09/18 09:41:13;;;;;;;9.27;1.33;;;14.60;99.90;;;;;;5051701;28;20477;-78
2022/09/18 09:43:46;;;;;;;6.25;1.05;;;14.50;99.90;;;;;;5055830;28;20025;-76
2022/09/18 09:46:38;;;;;;;5.43;0.63;;;14.30;99.90;;;;;;5054207;28;20112;-77
2022/09/18 09:49:11;;;;;;;8.10;2.55;;;13.60;99.90;;;;;;5046004;28;20057;-76
2022/09/18 09:52:04;;;;;;;5.47;1.00;;;13.10;99.90;;;;;;5044898;28;20023;-76
2022/09/18 09:54:30;;;;;;;6.43;1.58;;;12.80;99.90;;;;;;5047125;28;20086;-75
2022/09/18 09:57:07;;;;;;;7.85;1.20;;;12.60;99.90;;;;;;5054281;28;20401;-76
2022/09/18 09:59:50;;;;;;;3.45;0.90;;;12.50;99.90;;;;;;5047857;28;20503;-76
2022/09/18 10:02:27;;;;;;;3.55;0.80;;;12.50;99.90;;;;;;5047906;28;20041;-74
2022/09/18 10:05:01;;;;;;;3.17;0.70;;;12.50;99.90;;;;;;5054122;28;20544;-76
2022/09/18 10:07:44;;;;;;;4.38;1.13;;;12.60;99.90;;;;;;5056946;28;20434;-76
2022/09/18 10:10:13;;;;;;;4.10;0.80;;;12.60;99.90;;;;;;5037832;28;20108;-76
2022/09/18 10:12:49;;;;;;;6.38;1.10;;;12.80;99.90;;;;;;5037620;28;20087;-76
2022/09/18 10:15:41;;;;;;;6.07;1.15;;;12.90;99.90;;;;;;5035944;28;20111;-76
2022/09/18 10:18:21;;;;;;;10.00;1.00;;;13.10;99.90;;;;;;5050077;28;20041;-76
2022/09/18 10:20:54;;;;;;;7.88;0.95;;;13.10;99.90;;;;;;5055430;28;20066;-76
2022/09/18 10:23:37;;;;;;;12.52;2.05;;;13.20;99.90;;;;;;5056234;28;20033;-76
2022/09/18 10:26:03;;;;;;;7.78;1.85;;;13.20;99.90;;;;;;5053945;28;20057;-76
2022/09/18 10:28:29;;;;;;;6.55;1.05;;;13.20;99.90;;;;;;5056151;28;20028;-76
2022/09/18 10:31:02;;;;;;;11.75;1.88;;;13.10;99.90;;;;;;5050022;28;20095;-75
2022/09/18 10:33:42;;;;;;;13.40;2.35;;;12.90;99.90;;;;;;5042543;28;20075;-75
2022/09/18 10:36:22;;;;;;;9.27;1.85;;;12.80;99.90;;;;;;5042316;28;20437;-76
2022/09/18 10:38:49;;;;;;;;;;;12.70;99.90;;;;;;5050787;28;20037;-75
2022/09/18 10:41:20;;;;;;;5.65;1.17;;;12.60;99.90;;;;;;5042692;28;19912;-76
2022/09/18 10:43:57;;;;;;;8.02;1.38;;;12.60;99.90;;;;;;5046917;28;20096;-76
2022/09/18 10:46:29;;;;;;;4.15;1.15;;;12.70;99.90;;;;;;5046318;28;20025;-75
2022/09/18 10:48:58;;;;;;;8.43;1.55;;;12.70;99.90;;;;;;5047466;28;20049;-76
2022/09/18 10:51:28;;;;;;;7.35;1.60;;;12.80;99.90;;;;;;5038880;28;20049;-75
2022/09/18 10:54:14;;;;;;;12.50;2.25;;;12.80;99.90;;;;;;5046158;28;20025;-76
2022/09/18 10:56:41;;;;;;;9.45;1.27;;;13.00;99.90;;;;;;5060873;28;20040;-75
2022/09/18 10:59:30;;;;;;;5.57;1.45;;;13.10;99.90;;;;;;5061607;28;20025;-76
2022/09/18 11:02:04;;;;;;;6.45;1.70;;;13.10;99.90;;;;;;5043974;28;20109;-76
2022/09/18 11:04:31;;;;;;;7.95;1.05;;;13.20;99.90;;;;;;5034893;28;20037;-76
2022/09/18 11:07:01;;;;;;;6.63;0.95;;;13.20;99.90;;;;;;5047372;28;20031;-75
2022/09/18 11:09:43;;;;;;;7.90;1.45;;;13.10;99.90;;;;;;5046665;28;20371;-75
2022/09/18 11:12:15;;;;;;;2.40;0.60;;;13.10;99.90;;;;;;5045458;28;20114;-76
2022/09/18 11:14:45;;;;;;;3.55;1.33;;;13.00;99.90;;;;;;5051844;28;20468;-76
2022/09/18 11:17:19;;;;;;;4.87;1.67;;;13.00;99.90;;;;;;5034712;28;20409;-75
2022/09/18 11:19:51;;;;;;;2.42;0.52;;;12.90;99.90;;;;;;5035358;28;20272;-76
2022/09/18 11:22:32;;;;;;;4.22;0.85;;;12.90;99.90;;;;;;5043142;28;20036;-76
2022/09/18 11:25:13;;;;;;;7.35;1.02;;;12.80;99.90;;;;;;5034677;28;20025;-77
2022/09/18 11:27:46;;;;;;;4.63;1.42;;;12.80;99.90;;;;;;5034305;28;20045;-76
2022/09/18 11:30:14;;;;;;;5.57;0.90;;;12.90;99.90;;;;;;5035002;28;20129;-75
2022/09/18 11:32:43;;;;;;;7.00;1.15;;;13.10;99.90;;;;;;5034667;28;20060;-76
2022/09/18 11:35:15;;;;;;;6.18;1.25;;;13.20;99.90;;;;;;5042030;28;20451;-76
2022/09/18 11:38:19;;;;;;;5.60;1.00;;;13.20;99.90;;;;;;5045919;28;20400;-76
2022/09/18 11:40:50;;;;;;;4.97;1.17;;;13.30;99.90;;;;;;5028774;28;20112;-76
2022/09/18 11:43:27;;;;;;;8.07;1.00;;;13.30;99.90;;;;;;5026809;28;20021;-76
2022/09/18 11:46:18;;;;;;;10.02;1.25;;;13.40;99.90;;;;;;5036653;28;20041;-75
2022/09/18 11:48:50;;;;;;;5.55;1.10;;;13.30;99.90;;;;;;5045016;28;20788;-75
2022/09/18 11:51:25;;;;;;;9.95;1.27;;;13.30;99.90;;;;;;5042420;28;20114;-76
2022/09/18 11:54:00;;;;;;;7.10;1.00;;;13.30;99.90;;;;;;5050517;28;20431;-76
2022/09/18 11:56:39;;;;;;;8.77;1.30;;;13.40;99.90;;;;;;5050197;28;20090;-75
2022/09/18 11:59:12;;;;;;;6.05;1.00;;;13.40;99.90;;;;;;5047226;28;20036;-75
2022/09/18 12:01:47;;;;;;;11.30;1.85;;;13.40;99.90;;;;;;5047129;28;20018;-77
2022/09/18 12:04:42;;;;;;;6.18;1.00;;;13.40;99.90;;;;;;5047708;28;20021;-77
2022/09/18 12:07:28;;;;;;;10.18;1.20;;;13.50;99.90;;;;;;5046814;28;20052;-76
2022/09/18 12:10:12;;;;;;;13.15;1.35;;;13.50;99.90;;;;;;5040451;28;20390;-76
2022/09/18 12:12:43;;;;;;;5.03;1.00;;;13.60;99.90;;;;;;5043669;28;20025;-77
2022/09/18 12:15:22;;;;;;;6.78;1.00;;;13.60;99.90;;;;;;5035416;28;20473;-76
2022/09/18 12:17:51;;;;;;;3.97;0.95;;;13.50;99.90;;;;;;5035149;28;20085;-75
2022/09/18 12:20:41;;;;;;;12.13;1.50;;;13.50;99.90;;;;;;5040712;28;20026;-76
2022/09/18 12:23:18;;;;;;;9.50;1.75;;;13.50;99.90;;;;;;5032925;28;20037;-77
2022/09/18 12:25:59;;;;;;;8.07;1.35;;;13.60;99.90;;;;;;5031303;28;20111;-77
2022/09/18 12:28:37;;;;;;;7.78;1.10;;;13.60;99.90;;;;;;5030751;28;20036;-76
2022/09/18 12:31:24;;;;;;;5.88;1.05;;;13.60;99.90;;;;;;5032950;28;20099;-76
2022/09/18 12:34:08;;;;;;;6.90;1.27;;;13.60;99.90;;;;;;5033369;28;20029;-76
2022/09/18 12:36:45;;;;;;;3.88;1.27;;;13.70;99.90;;;;;;5032881;28;20034;-76
2022/09/18 12:39:36;;;;;;;2.70;0.85;;;13.60;99.90;;;;;;5037087;28;20025;-76
2022/09/18 12:42:20;;;;;;;2.30;0.77;;;13.60;99.90;;;;;;5035822;28;20473;-76
2022/09/18 12:44:52;;;;;;;5.35;1.30;;;13.60;99.90;;;;;;5031975;28;20072;-76
2022/09/18 12:48:00;;;;;;;12.15;1.70;;;13.60;99.90;;;;;;5045715;28;20470;-77
2022/09/18 12:50:58;;;;;;;3.45;1.20;;;13.60;99.90;;;;;;5042256;28;20033;-77
2022/09/18 12:53:38;;;;;;;7.22;1.45;;;13.60;99.90;;;;;;5031980;28;20051;-76
2022/09/18 12:56:19;;;;;;;10.48;1.30;;;13.60;99.90;;;;;;5032653;28;20572;-76
2022/09/18 12:59:06;;;;;;;6.78;0.82;;;13.50;99.90;;;;;;5032712;28;20028;-77
2022/09/18 13:01:48;;;;;;;7.28;1.08;;;13.50;99.90;;;;;;5038074;28;20017;-77
2022/09/18 13:04:35;;;;;;;4.72;1.15;;;13.50;99.90;;;;;;5052242;28;20064;-76
2022/09/18 13:07:14;;;;;;;6.00;1.23;;;13.60;99.90;;;;;;5040030;28;20021;-78
2022/09/18 13:09:52;;;;;;;4.72;1.00;;;13.60;99.90;;;;;;5052756;28;20032;-78
2022/09/18 13:12:32;;;;;;;5.80;1.58;;;13.50;99.90;;;;;;5054325;28;20020;-77